Time;durP1;ratioP1;P1;durP2;ratioP2;P2;SDS_P1;SDS_P2;PMS_P1;PMS_P2;Temp;Humidity;BMP_temperature;BMP_pressure;BME280_temperature;BME280_humidity;BME280_pressure;Samples;Min_cycle;Max_cycle;Signal;HPM_P1;HPM_P2
2022/07/23 00:00:20;;;;;;;10.23;5.00;;;18.90;99.90;;;;;;5053314;28;20029;-85
2022/07/23 00:02:46;;;;;;;7.63;4.50;;;19.00;99.90;;;;;;5035864;28;20325;-85
2022/07/23 00:05:13;;;;;;;8.25;4.70;;;19.00;99.90;;;;;;5053719;28;20547;-85
2022/07/23 00:07:41;;;;;;;8.18;4.30;;;19.00;99.90;;;;;;5053738;28;20464;-85
2022/07/23 00:10:09;;;;;;;9.63;5.07;;;19.00;99.90;;;;;;5052178;28;20194;-84
2022/07/23 00:12:35;;;;;;;8.93;5.22;;;19.00;99.90;;;;;;5066618;22;20425;-84
2022/07/23 00:15:03;;;;;;;8.95;4.68;;;19.00;99.90;;;;;;5053881;28;20028;-84
2022/07/23 00:17:37;;;;;;;8.40;4.97;;;19.00;99.90;;;;;;5053373;28;20037;-84
2022/07/23 00:20:03;;;;;;;8.63;4.55;;;19.00;99.90;;;;;;5053424;28;20032;-84
2022/07/23 00:22:29;;;;;;;8.65;4.88;;;19.00;99.90;;;;;;5053500;28;20393;-84
2022/07/23 00:24:55;;;;;;;9.88;5.25;;;19.00;99.90;;;;;;5053612;28;20036;-84
2022/07/23 00:27:21;;;;;;;8.80;4.90;;;19.00;99.90;;;;;;5053156;28;20082;-84
2022/07/23 00:29:47;;;;;;;10.77;5.63;;;18.90;99.90;;;;;;5052097;28;20041;-84
2022/07/23 00:32:13;;;;;;;9.93;5.20;;;18.90;99.90;;;;;;5052134;28;20089;-84
2022/07/23 00:34:39;;;;;;;10.30;5.63;;;18.90;99.90;;;;;;5052076;28;20506;-84
2022/07/23 00:37:04;;;;;;;9.63;4.70;;;18.90;99.90;;;;;;5053119;28;20043;-84
2022/07/23 00:39:30;;;;;;;8.75;4.93;;;18.90;99.90;;;;;;5052665;28;20029;-84
2022/07/23 00:41:56;;;;;;;7.82;4.68;;;18.90;99.90;;;;;;5051944;28;20087;-84
2022/07/23 00:44:23;;;;;;;10.48;5.30;;;18.90;99.90;;;;;;5051869;28;20033;-84
2022/07/23 00:46:55;;;;;;;8.55;4.82;;;18.90;99.90;;;;;;5052978;28;20024;-84
2022/07/23 00:49:27;;;;;;;7.20;4.72;;;18.90;99.90;;;;;;5052825;28;20036;-84
2022/07/23 00:51:53;;;;;;;9.73;5.43;;;18.90;99.90;;;;;;5053054;28;20033;-84
2022/07/23 00:54:21;;;;;;;7.85;4.80;;;18.90;99.90;;;;;;5052944;28;20044;-84
2022/07/23 00:56:47;;;;;;;10.40;5.23;;;18.90;99.90;;;;;;5051484;28;20032;-84
2022/07/23 00:59:13;;;;;;;8.77;5.07;;;18.90;99.90;;;;;;5051633;28;20025;-84
2022/07/23 01:01:40;;;;;;;7.85;5.43;;;18.90;99.90;;;;;;5051723;28;20037;-83
2022/07/23 01:04:06;;;;;;;10.05;5.50;;;18.90;99.90;;;;;;5051637;28;20154;-84
2022/07/23 01:06:36;;;;;;;8.70;5.07;;;18.90;99.90;;;;;;5052639;28;20037;-84
2022/07/23 01:09:07;;;;;;;8.05;4.93;;;18.80;99.90;;;;;;5051278;28;20032;-84
2022/07/23 01:11:37;;;;;;;9.43;4.97;;;18.80;99.90;;;;;;5051513;28;20032;-84
2022/07/23 01:14:13;;;;;;;11.75;5.88;;;18.80;99.90;;;;;;5052558;28;20048;-84
2022/07/23 01:16:41;;;;;;;8.52;5.20;;;18.80;99.90;;;;;;5051019;28;20040;-82
2022/07/23 01:19:07;;;;;;;7.85;5.32;;;18.80;99.90;;;;;;5052600;28;20031;-84
2022/07/23 01:21:37;;;;;;;7.72;5.40;;;18.80;99.90;;;;;;5051216;28;20107;-84
2022/07/23 01:24:04;;;;;;;8.07;5.47;;;18.80;99.90;;;;;;5051483;28;20036;-84
2022/07/23 01:26:31;;;;;;;8.13;5.43;;;18.80;99.90;;;;;;5051089;28;20106;-84
2022/07/23 01:28:57;;;;;;;8.35;4.75;;;18.80;99.90;;;;;;5051100;28;20494;-84
2022/07/23 01:31:22;;;;;;;8.88;5.40;;;18.70;99.90;;;;;;5052025;28;20036;-84
2022/07/23 01:33:49;;;;;;;9.85;5.63;;;18.80;99.90;;;;;;5050581;28;20029;-84
2022/07/23 01:36:16;;;;;;;9.90;5.95;;;18.80;99.90;;;;;;5050683;28;20036;-84
2022/07/23 01:38:41;;;;;;;9.98;6.13;;;18.80;99.90;;;;;;5050463;28;20029;-84
2022/07/23 01:41:07;;;;;;;8.95;5.70;;;18.80;99.90;;;;;;5050567;28;20486;-84
2022/07/23 01:43:33;;;;;;;8.48;5.43;;;18.70;99.90;;;;;;5050442;28;20393;-83
2022/07/23 01:45:59;;;;;;;9.40;5.90;;;18.70;99.90;;;;;;5050310;28;20519;-84
2022/07/23 01:48:30;;;;;;;10.32;5.88;;;18.80;99.90;;;;;;5050107;28;20488;-84
2022/07/23 01:51:21;;;;;;;7.60;5.47;;;18.80;99.90;;;;;;5042414;28;20064;-84
2022/07/23 01:53:56;;;;;;;11.55;5.80;;;18.70;99.90;;;;;;5050371;28;20029;-84
2022/07/23 01:56:22;;;;;;;8.18;5.63;;;18.80;99.90;;;;;;5050070;28;20035;-83
2022/07/23 01:58:49;;;;;;;7.78;5.13;;;18.70;99.90;;;;;;5033579;28;20078;-84
2022/07/23 02:01:16;;;;;;;10.18;5.75;;;18.70;99.90;;;;;;5050170;28;20021;-84
2022/07/23 02:03:42;;;;;;;9.85;6.00;;;18.70;99.90;;;;;;5051400;28;20024;-84
2022/07/23 02:06:09;;;;;;;11.45;6.03;;;18.70;99.90;;;;;;5051519;28;20041;-84
2022/07/23 02:08:35;;;;;;;10.43;5.47;;;18.70;99.90;;;;;;5049911;28;20033;-84
2022/07/23 02:11:01;;;;;;;11.88;6.38;;;18.70;99.90;;;;;;5050207;28;20033;-84
2022/07/23 02:13:29;;;;;;;12.90;6.75;;;18.60;99.90;;;;;;5051054;28;20029;-84
2022/07/23 02:15:54;;;;;;;10.82;5.85;;;18.60;99.90;;;;;;5051105;28;20041;-84
2022/07/23 02:18:20;;;;;;;9.57;5.80;;;18.60;99.90;;;;;;5049959;28;20051;-84
2022/07/23 02:20:46;;;;;;;12.02;5.95;;;18.60;99.90;;;;;;5051143;28;20040;-83
2022/07/23 02:23:11;;;;;;;9.20;5.63;;;18.50;99.90;;;;;;5049797;28;20074;-84
2022/07/23 02:25:38;;;;;;;7.32;5.22;;;18.60;99.90;;;;;;5049608;28;20029;-84
2022/07/23 02:28:04;;;;;;;8.05;5.30;;;18.50;99.90;;;;;;5049791;28;20029;-84
2022/07/23 02:30:29;;;;;;;8.30;5.93;;;18.50;99.90;;;;;;5049402;28;20039;-84
2022/07/23 02:32:55;;;;;;;13.93;7.43;;;18.50;99.90;;;;;;5050911;28;20070;-83
2022/07/23 02:35:23;;;;;;;9.07;5.88;;;18.50;99.90;;;;;;5033386;28;20502;-84
2022/07/23 02:37:49;;;;;;;11.25;5.80;;;18.50;99.90;;;;;;5049377;28;20033;-84
2022/07/23 02:40:15;;;;;;;11.75;6.03;;;18.50;99.90;;;;;;5049398;28;20048;-84
2022/07/23 02:42:42;;;;;;;11.13;5.40;;;18.50;99.90;;;;;;5049470;28;20031;-84
2022/07/23 02:45:08;;;;;;;9.82;6.68;;;18.50;99.90;;;;;;5049484;28;20393;-84
2022/07/23 02:47:34;;;;;;;8.93;5.28;;;18.40;99.90;;;;;;5049349;28;20037;-84
2022/07/23 02:50:01;;;;;;;12.70;6.90;;;18.50;99.90;;;;;;5049195;28;20069;-84
2022/07/23 02:52:28;;;;;;;11.98;6.38;;;18.40;99.90;;;;;;5049377;28;20091;-84
2022/07/23 02:54:54;;;;;;;10.27;5.80;;;18.50;99.90;;;;;;5049390;28;20033;-83
2022/07/23 02:57:20;;;;;;;10.30;6.30;;;18.40;99.90;;;;;;5050347;28;20112;-83
2022/07/23 02:59:46;;;;;;;11.35;6.28;;;18.50;99.90;;;;;;5049237;28;20025;-84
2022/07/23 03:02:12;;;;;;;10.27;6.15;;;18.50;99.90;;;;;;5052162;28;20029;-83
2022/07/23 03:04:38;;;;;;;9.98;6.38;;;18.50;99.90;;;;;;5053303;28;20021;-84
2022/07/23 03:07:03;;;;;;;13.10;6.57;;;18.50;99.90;;;;;;5053115;28;20032;-83
2022/07/23 03:09:29;;;;;;;10.38;5.90;;;18.40;99.90;;;;;;5053086;28;20119;-84
2022/07/23 03:11:55;;;;;;;8.98;5.72;;;18.40;99.90;;;;;;5053160;28;20033;-84
2022/07/23 03:14:20;;;;;;;11.50;6.45;;;18.40;99.90;;;;;;5053054;28;20028;-84
2022/07/23 03:16:46;;;;;;;11.75;6.38;;;18.30;99.90;;;;;;5053085;28;20481;-84
2022/07/23 03:19:12;;;;;;;9.15;6.70;;;18.30;99.90;;;;;;5052995;28;20059;-84
2022/07/23 03:21:40;;;;;;;11.70;6.10;;;18.30;99.90;;;;;;5054208;28;20028;-84
2022/07/23 03:24:09;;;;;;;10.23;6.45;;;18.30;99.90;;;;;;5052858;28;20481;-84
2022/07/23 03:26:35;;;;;;;9.40;6.53;;;18.20;99.90;;;;;;5052632;28;20033;-84
2022/07/23 03:29:03;;;;;;;8.15;5.80;;;18.20;99.90;;;;;;5052913;28;20481;-83
2022/07/23 03:31:33;;;;;;;9.02;6.03;;;18.20;99.90;;;;;;5036552;28;20155;-84
2022/07/23 03:33:59;;;;;;;10.55;5.75;;;18.10;99.90;;;;;;5053083;28;20040;-84
2022/07/23 03:36:26;;;;;;;9.45;5.90;;;18.10;99.90;;;;;;5052568;28;20040;-84
2022/07/23 03:38:54;;;;;;;;;;;18.10;99.90;;;;;;5053196;28;20029;-84
2022/07/23 03:41:20;;;;;;;11.55;6.50;;;18.10;99.90;;;;;;5035921;28;19986;-83
2022/07/23 03:43:46;;;;;;;9.55;6.28;;;18.00;99.90;;;;;;5053827;28;20104;-84
2022/07/23 03:46:12;;;;;;;10.70;6.20;;;18.10;99.90;;;;;;5052561;28;20491;-84
2022/07/23 03:48:38;;;;;;;9.15;6.22;;;18.00;99.90;;;;;;5052153;28;20033;-84
2022/07/23 03:51:04;;;;;;;7.57;6.00;;;18.00;99.90;;;;;;5052426;28;20033;-83
2022/07/23 03:53:30;;;;;;;9.65;6.00;;;18.00;99.90;;;;;;5052175;28;20040;-84
2022/07/23 03:55:55;;;;;;;12.00;6.43;;;18.00;99.90;;;;;;5035612;28;20033;-84
2022/07/23 03:58:22;;;;;;;11.30;6.18;;;17.90;99.90;;;;;;5052418;28;20025;-84
2022/07/23 04:00:48;;;;;;;13.90;6.78;;;17.90;99.90;;;;;;5052001;28;20097;-84
2022/07/23 04:03:15;;;;;;;12.07;6.97;;;17.90;99.90;;;;;;5052071;28;20029;-84
2022/07/23 04:05:41;;;;;;;10.10;6.43;;;17.90;99.90;;;;;;5051808;28;20508;-84
2022/07/23 04:08:11;;;;;;;10.75;6.65;;;17.90;99.90;;;;;;5052223;28;20392;-83
2022/07/23 04:10:40;;;;;;;10.40;6.38;;;17.90;99.90;;;;;;5051962;28;20036;-83
2022/07/23 04:13:07;;;;;;;10.63;6.28;;;17.90;99.90;;;;;;5051403;28;20033;-83
2022/07/23 04:15:33;;;;;;;9.05;6.40;;;17.90;99.90;;;;;;5051630;28;20035;-83
2022/07/23 04:17:59;;;;;;;9.70;6.05;;;17.90;99.90;;;;;;5051534;28;20086;-84
2022/07/23 04:20:34;;;;;;;11.00;6.88;;;18.00;99.90;;;;;;5051540;28;20235;-84
2022/07/23 04:23:02;;;;;;;14.48;6.60;;;18.00;99.90;;;;;;5051631;28;20051;-83
2022/07/23 04:25:28;;;;;;;9.77;6.55;;;18.00;99.90;;;;;;5052029;28;20124;-83
2022/07/23 04:27:54;;;;;;;10.70;6.38;;;18.00;99.90;;;;;;5051371;28;20068;-84
2022/07/23 04:30:20;;;;;;;11.30;6.82;;;17.90;99.90;;;;;;5052736;28;20064;-84
2022/07/23 04:32:46;;;;;;;9.30;6.60;;;18.00;99.90;;;;;;5051488;28;20029;-83
2022/07/23 04:35:18;;;;;;;11.45;6.88;;;18.00;99.90;;;;;;5035727;28;20025;-84
2022/07/23 04:37:44;;;;;;;9.95;6.53;;;18.00;99.90;;;;;;5051096;28;20025;-83
2022/07/23 04:40:12;;;;;;;10.45;6.57;;;18.00;99.90;;;;;;5051199;28;20033;-83
2022/07/23 04:42:38;;;;;;;9.52;6.30;;;18.00;99.90;;;;;;5051222;28;20037;-83
2022/07/23 04:45:04;;;;;;;9.27;7.03;;;18.00;99.90;;;;;;5051291;28;20079;-84
2022/07/23 04:47:30;;;;;;;9.48;6.18;;;17.90;99.90;;;;;;5052399;28;20037;-84
2022/07/23 04:49:57;;;;;;;11.05;7.97;;;18.00;99.90;;;;;;5051055;28;20039;-83
2022/07/23 04:52:24;;;;;;;12.82;7.22;;;18.00;99.90;;;;;;5051191;28;20383;-84
2022/07/23 04:54:50;;;;;;;11.43;6.60;;;18.00;99.90;;;;;;5051188;28;20025;-84
2022/07/23 04:57:16;;;;;;;10.57;7.07;;;18.00;99.90;;;;;;5050734;28;20085;-84
2022/07/23 04:59:42;;;;;;;10.30;6.80;;;18.00;99.90;;;;;;5050829;28;20061;-84
2022/07/23 05:02:09;;;;;;;12.45;7.53;;;18.00;99.90;;;;;;5050971;28;20052;-84
2022/07/23 05:04:34;;;;;;;10.63;6.60;;;18.00;99.90;;;;;;5050786;28;20029;-84
2022/07/23 05:07:02;;;;;;;11.32;7.13;;;18.00;99.90;;;;;;5050669;28;20040;-84
2022/07/23 05:09:28;;;;;;;10.65;7.10;;;18.10;99.90;;;;;;5034149;28;20029;-84
2022/07/23 05:11:55;;;;;;;9.82;6.53;;;18.10;99.90;;;;;;5052132;28;20178;-84
2022/07/23 05:14:21;;;;;;;10.98;7.75;;;18.10;99.90;;;;;;5034023;28;20040;-84
2022/07/23 05:16:50;;;;;;;10.90;6.95;;;18.00;99.90;;;;;;5050372;28;20060;-83
2022/07/23 05:19:21;;;;;;;10.65;6.90;;;18.00;99.90;;;;;;5050473;28;20033;-84
2022/07/23 05:21:47;;;;;;;16.27;7.70;;;18.10;99.90;;;;;;5050459;28;20090;-84
2022/07/23 05:24:13;;;;;;;11.75;6.60;;;18.10;99.90;;;;;;5050438;28;20057;-84
2022/07/23 05:26:39;;;;;;;12.32;7.85;;;18.10;99.90;;;;;;5049247;28;20060;-84
2022/07/23 05:29:05;;;;;;;10.85;7.50;;;18.20;99.90;;;;;;5050233;28;20028;-83
2022/07/23 05:31:31;;;;;;;11.30;7.25;;;18.20;99.90;;;;;;5050249;28;20055;-83
2022/07/23 05:33:57;;;;;;;11.20;6.82;;;18.20;99.90;;;;;;5033761;28;20033;-83
2022/07/23 05:36:23;;;;;;;11.13;7.97;;;18.20;99.90;;;;;;5050128;28;20036;-84
2022/07/23 05:38:52;;;;;;;14.05;7.97;;;18.20;99.90;;;;;;5050209;28;20036;-84
2022/07/23 05:41:18;;;;;;;11.20;7.35;;;18.20;99.90;;;;;;5050269;28;20554;-84
2022/07/23 05:43:44;;;;;;;10.73;7.20;;;18.30;99.90;;;;;;5050482;28;20032;-84
2022/07/23 05:46:11;;;;;;;11.98;7.82;;;18.20;99.90;;;;;;5050045;28;20033;-83
2022/07/23 05:48:39;;;;;;;10.23;7.50;;;18.30;99.90;;;;;;5049964;28;20028;-83
2022/07/23 05:51:11;;;;;;;13.25;9.32;;;18.30;99.90;;;;;;5050524;28;20480;-83
2022/07/23 05:53:37;;;;;;;15.43;9.88;;;18.30;99.90;;;;;;5050193;28;20028;-83
2022/07/23 05:56:28;;;;;;;13.13;8.20;;;18.40;99.90;;;;;;5045906;28;20060;-83
2022/07/23 05:58:54;;;;;;;13.52;8.45;;;18.40;99.90;;;;;;5049968;28;20059;-83
2022/07/23 06:01:24;;;;;;;11.82;7.93;;;18.40;99.90;;;;;;5050037;28;20033;-84
2022/07/23 06:03:59;;;;;;;11.73;8.07;;;18.40;99.90;;;;;;5049898;28;20031;-84
2022/07/23 06:06:32;;;;;;;12.10;8.70;;;18.40;99.90;;;;;;5049842;28;20029;-83
2022/07/23 06:08:58;;;;;;;13.75;9.23;;;18.50;99.90;;;;;;5049544;28;20078;-83
2022/07/23 06:11:23;;;;;;;12.60;8.82;;;18.50;99.90;;;;;;5051295;28;20025;-84
2022/07/23 06:13:49;;;;;;;17.10;10.25;;;18.50;99.90;;;;;;5063847;23;20413;-86
2022/07/23 06:16:15;;;;;;;13.52;9.70;;;18.60;99.90;;;;;;5033029;28;20024;-86
2022/07/23 06:18:41;;;;;;;13.70;8.93;;;18.50;99.90;;;;;;5049382;28;20044;-86
2022/07/23 06:21:07;;;;;;;16.20;10.00;;;18.60;99.90;;;;;;5049422;28;20025;-86
2022/07/23 06:23:33;;;;;;;17.23;10.82;;;18.60;99.90;;;;;;5049478;28;20025;-86
2022/07/23 06:25:59;;;;;;;13.07;9.50;;;18.60;99.90;;;;;;5049289;28;20028;-86
2022/07/23 06:28:25;;;;;;;13.13;8.73;;;18.60;99.90;;;;;;5051514;28;20182;-86
2022/07/23 06:30:50;;;;;;;20.80;12.07;;;18.60;99.90;;;;;;5049290;28;20116;-86
2022/07/23 06:33:16;;;;;;;15.65;10.90;;;18.70;99.90;;;;;;5050620;28;20024;-86
2022/07/23 06:35:43;;;;;;;16.63;10.65;;;18.70;99.90;;;;;;5032898;28;20028;-86
2022/07/23 06:38:09;;;;;;;16.88;11.88;;;18.70;99.90;;;;;;5048860;28;20043;-86
2022/07/23 06:40:35;;;;;;;21.83;12.95;;;18.70;99.90;;;;;;5049218;28;20025;-86
2022/07/23 06:43:02;;;;;;;18.38;12.20;;;18.70;99.90;;;;;;5032696;28;20021;-86
2022/07/23 06:45:27;;;;;;;20.27;12.43;;;18.80;99.90;;;;;;5049468;28;20036;-86
2022/07/23 06:47:53;;;;;;;18.17;12.90;;;18.80;99.90;;;;;;5050266;28;20036;-85
2022/07/23 06:50:19;;;;;;;20.40;13.40;;;18.90;99.90;;;;;;5049542;28;20037;-86
2022/07/23 06:52:45;;;;;;;22.63;15.32;;;18.90;99.90;;;;;;5050293;28;20055;-86
2022/07/23 06:55:10;;;;;;;18.55;13.60;;;18.90;99.90;;;;;;5049374;28;20082;-86
2022/07/23 06:57:37;;;;;;;25.35;13.48;;;19.00;99.90;;;;;;5049120;28;20039;-86
2022/07/23 07:00:06;;;;;;;16.80;12.98;;;19.00;99.90;;;;;;5050242;28;20066;-85
2022/07/23 07:02:31;;;;;;;20.15;13.57;;;19.00;99.90;;;;;;5049135;28;20108;-86
2022/07/23 07:04:57;;;;;;;20.00;12.38;;;19.00;99.90;;;;;;5048936;28;20476;-83
2022/07/23 07:07:23;;;;;;;18.63;11.57;;;19.00;99.90;;;;;;5048964;28;20033;-83
2022/07/23 07:09:49;;;;;;;19.63;12.63;;;19.10;99.90;;;;;;5049963;28;20036;-83
2022/07/23 07:12:15;;;;;;;16.00;10.52;;;19.10;99.90;;;;;;5050477;28;20039;-83
2022/07/23 07:14:40;;;;;;;19.70;13.80;;;19.10;99.90;;;;;;5050537;28;20049;-85
2022/07/23 07:17:10;;;;;;;19.45;11.05;;;19.10;99.90;;;;;;5050036;28;20036;-83
2022/07/23 07:19:36;;;;;;;15.77;10.90;;;19.10;99.90;;;;;;5050209;28;20033;-83
2022/07/23 07:22:07;;;;;;;16.33;12.27;;;19.20;99.90;;;;;;5048888;28;20500;-83
2022/07/23 07:24:38;;;;;;;16.40;11.57;;;19.20;99.90;;;;;;5050475;28;20018;-84
2022/07/23 07:27:04;;;;;;;19.02;11.20;;;19.20;99.90;;;;;;5050070;28;20028;-84
2022/07/23 07:29:30;;;;;;;23.08;13.68;;;19.20;99.90;;;;;;5049898;28;20520;-84
2022/07/23 07:31:56;;;;;;;21.88;12.48;;;19.30;99.90;;;;;;5048790;28;20090;-84
2022/07/23 07:34:21;;;;;;;19.65;11.93;;;19.30;99.90;;;;;;5050105;28;20035;-84
2022/07/23 07:36:47;;;;;;;18.60;10.50;;;19.40;99.90;;;;;;5050190;28;20405;-84
2022/07/23 07:39:14;;;;;;;18.60;11.40;;;19.40;99.90;;;;;;5048128;28;20036;-84
2022/07/23 07:41:40;;;;;;;23.55;14.82;;;19.40;99.90;;;;;;5050238;28;20033;-83
2022/07/23 07:44:05;;;;;;;33.08;20.98;;;19.50;99.90;;;;;;5050323;28;20036;-83
2022/07/23 07:46:34;;;;;;;31.20;22.08;;;19.50;99.90;;;;;;5049824;28;20029;-83
2022/07/23 07:49:00;;;;;;;40.40;25.00;;;19.50;99.90;;;;;;5049504;28;20037;-84
2022/07/23 07:51:26;;;;;;;35.90;23.17;;;19.50;99.90;;;;;;5052425;28;20477;-84
2022/07/23 07:53:52;;;;;;;31.85;21.92;;;19.60;99.90;;;;;;5053649;28;20532;-83
2022/07/23 07:56:18;;;;;;;28.45;17.50;;;19.60;99.90;;;;;;5053590;28;20071;-84
2022/07/23 07:58:44;;;;;;;31.88;19.75;;;19.60;99.90;;;;;;5053262;28;20124;-84
2022/07/23 08:01:09;;;;;;;33.22;21.25;;;19.70;99.90;;;;;;5052019;28;20021;-84
2022/07/23 08:03:35;;;;;;;31.55;21.08;;;19.70;99.90;;;;;;5053831;28;20031;-84
2022/07/23 08:06:01;;;;;;;28.73;19.92;;;19.70;99.90;;;;;;5053206;28;20082;-84
2022/07/23 08:08:26;;;;;;;25.75;17.38;;;19.70;99.90;;;;;;5053433;28;20029;-84
2022/07/23 08:10:52;;;;;;;25.83;16.00;;;19.80;99.90;;;;;;5053266;28;20454;-84
2022/07/23 08:13:18;;;;;;;18.40;11.63;;;19.90;99.90;;;;;;5052994;28;20040;-84
2022/07/23 08:15:44;;;;;;;18.40;11.88;;;19.90;99.90;;;;;;5053206;28;20405;-84
2022/07/23 08:18:10;;;;;;;14.52;9.82;;;19.90;99.90;;;;;;5052959;28;20033;-84
2022/07/23 08:20:36;;;;;;;13.00;7.80;;;19.90;99.90;;;;;;5052968;28;20304;-84
2022/07/23 08:23:06;;;;;;;18.42;10.73;;;19.90;99.90;;;;;;5051708;28;20033;-84
2022/07/23 08:25:35;;;;;;;14.55;10.35;;;19.90;99.90;;;;;;5053266;28;20029;-84
2022/07/23 08:28:02;;;;;;;15.50;8.38;;;19.90;99.90;;;;;;5052812;28;20038;-84
2022/07/23 08:30:29;;;;;;;13.25;7.32;;;19.90;99.90;;;;;;5052584;28;20094;-84
2022/07/23 08:33:00;;;;;;;12.98;7.65;;;19.90;99.90;;;;;;5052665;28;20043;-84
2022/07/23 08:35:32;;;;;;;13.68;6.47;;;19.90;99.90;;;;;;5053325;28;20044;-84
2022/07/23 08:38:00;;;;;;;11.85;5.65;;;19.90;99.90;;;;;;5052419;28;20478;-83
2022/07/23 08:40:28;;;;;;;9.52;4.60;;;20.00;99.90;;;;;;5051169;28;20021;-84
2022/07/23 08:42:54;;;;;;;9.52;4.97;;;20.00;99.90;;;;;;5051298;28;20040;-84
2022/07/23 08:45:21;;;;;;;8.80;5.40;;;19.90;99.90;;;;;;5052925;28;20028;-84
2022/07/23 08:47:52;;;;;;;10.35;5.15;;;20.00;99.90;;;;;;5051666;28;20120;-83
2022/07/23 08:50:18;;;;;;;8.73;4.47;;;20.00;99.90;;;;;;5052369;28;20033;-84
2022/07/23 08:52:45;;;;;;;16.17;8.45;;;20.00;99.90;;;;;;5052397;28;20061;-84
2022/07/23 08:55:11;;;;;;;11.90;6.70;;;20.10;99.90;;;;;;5034587;28;20060;-84
2022/07/23 08:57:36;;;;;;;11.10;5.25;;;20.10;99.60;;;;;;5052053;28;20075;-84
2022/07/23 09:00:05;;;;;;;9.45;4.13;;;20.10;99.00;;;;;;5051828;28;20366;-84
2022/07/23 09:02:37;;;;;;;10.63;6.78;;;20.10;99.50;;;;;;5052520;28;20032;-84
2022/07/23 09:05:04;;;;;;;10.02;5.43;;;20.10;99.30;;;;;;5052679;28;20083;-84
2022/07/23 09:07:29;;;;;;;9.15;4.85;;;20.10;99.50;;;;;;5052488;28;20032;-84
2022/07/23 09:10:13;;;;;;;6.15;3.88;;;20.10;99.50;;;;;;5034204;28;20370;-84
2022/07/23 09:12:39;;;;;;;11.60;5.72;;;20.10;99.10;;;;;;5052533;28;20033;-84
2022/07/23 09:15:09;;;;;;;12.70;6.45;;;20.20;99.20;;;;;;5050722;28;20037;-84
2022/07/23 09:17:57;;;;;;;11.88;6.65;;;20.20;98.90;;;;;;5051909;28;20029;-84
2022/07/23 09:20:23;;;;;;;11.98;5.65;;;20.20;98.90;;;;;;5043998;28;20040;-83
2022/07/23 09:22:50;;;;;;;9.45;5.38;;;20.20;99.10;;;;;;5051961;28;20423;-83
2022/07/23 09:25:21;;;;;;;11.75;5.60;;;20.30;98.70;;;;;;5052257;28;20120;-84
2022/07/23 09:27:55;;;;;;;8.77;4.50;;;20.40;97.50;;;;;;5050734;28;20512;-84
2022/07/23 09:30:23;;;;;;;6.00;4.07;;;20.40;96.80;;;;;;5050465;28;20035;-84
2022/07/23 09:33:08;;;;;;;9.00;4.65;;;20.50;96.90;;;;;;5052012;28;20028;-84
2022/07/23 09:36:03;;;;;;;8.13;4.05;;;20.50;97.00;;;;;;5051839;28;20395;-84
2022/07/23 09:38:29;;;;;;;10.00;4.63;;;20.50;97.20;;;;;;5038729;28;20048;-84
2022/07/23 09:41:08;;;;;;;10.70;4.85;;;20.50;97.70;;;;;;5051869;28;20039;-84
2022/07/23 09:43:34;;;;;;;10.88;4.18;;;20.50;97.30;;;;;;5051523;28;20069;-84
2022/07/23 09:46:25;;;;;;;10.77;3.72;;;20.50;97.20;;;;;;5051815;28;20063;-84
2022/07/23 09:48:52;;;;;;;7.82;3.70;;;20.50;97.30;;;;;;5051602;28;20029;-84
2022/07/23 09:51:37;;;;;;;10.05;4.00;;;20.50;97.20;;;;;;5051626;28;20033;-84
2022/07/23 09:54:03;;;;;;;10.45;3.53;;;20.60;97.10;;;;;;5051402;28;20059;-84
2022/07/23 09:57:25;;;;;;;6.68;3.17;;;20.60;97.50;;;;;;5050893;28;20047;-86
2022/07/23 10:00:49;;;;;;;6.85;3.10;;;20.60;97.10;;;;;;5051431;28;20531;-84
2022/07/23 10:07:26;;;;;;;;;;;20.80;96.10;;;;;;4989961;28;20457;-83
2022/07/23 10:10:20;;;;;;;7.00;3.67;;;20.80;96.40;;;;;;4990325;28;19956;-84
2022/07/23 10:16:02;;;;;;;6.90;3.50;;;20.90;95.80;;;;;;5049659;28;20059;-84
2022/07/23 10:21:58;;;;;;;7.80;3.90;;;20.90;95.30;;;;;;5049854;28;20045;-84
2022/07/23 10:24:51;;;;;;;6.63;3.20;;;21.00;95.40;;;;;;5019763;28;20326;-84
2022/07/23 10:28:00;;;;;;;11.77;4.03;;;21.00;95.60;;;;;;5051105;28;20033;-84
2022/07/23 10:31:28;;;;;;;9.63;3.63;;;21.10;95.50;;;;;;5049683;28;20029;-84
2022/07/23 10:34:28;;;;;;;6.20;3.13;;;21.10;94.90;;;;;;4989466;28;20038;-84
2022/07/23 10:37:31;;;;;;;5.05;2.75;;;21.20;94.80;;;;;;4989404;28;20030;-84
2022/07/23 10:40:19;;;;;;;4.72;2.25;;;21.10;94.70;;;;;;5050739;28;20108;-85
2022/07/23 10:43:17;;;;;;;;;;;;;;;;;;;;;
2022/07/23 10:49:36;;;;;;;7.32;3.08;;;21.20;94.50;;;;;;5049519;28;20524;-85
2022/07/23 10:52:13;;;;;;;7.03;3.10;;;21.30;94.10;;;;;;5051029;28;20033;-85
2022/07/23 10:54:45;;;;;;;8.55;3.40;;;21.30;93.80;;;;;;5049825;28;20086;-85
2022/07/23 10:57:13;;;;;;;5.47;2.83;;;21.40;93.80;;;;;;5032833;28;20033;-85
2022/07/23 11:00:05;;;;;;;5.95;2.97;;;21.40;94.20;;;;;;5049556;28;20572;-85
2022/07/23 11:02:33;;;;;;;5.97;2.88;;;21.50;94.20;;;;;;5049842;28;20025;-85
2022/07/23 11:05:00;;;;;;;;;;;21.50;93.90;;;;;;5033396;28;20484;-85
2022/07/23 11:07:26;;;;;;;6.43;2.17;;;21.60;93.70;;;;;;5049821;28;19908;-84
2022/07/23 11:09:55;;;;;;;5.32;2.20;;;21.60;93.40;;;;;;5050873;28;20057;-85
2022/07/23 11:12:21;;;;;;;6.35;2.85;;;21.60;93.80;;;;;;5050799;28;20035;-85
2022/07/23 11:15:13;;;;;;;7.80;2.67;;;21.80;92.80;;;;;;5050719;28;20671;-85
2022/07/23 11:17:50;;;;;;;7.85;3.97;;;21.70;93.00;;;;;;5050459;28;20063;-85
2022/07/23 11:20:20;;;;;;;4.57;2.63;;;21.80;92.90;;;;;;5050500;28;20029;-85
2022/07/23 11:22:47;;;;;;;5.00;2.30;;;21.70;93.00;;;;;;5051491;28;20061;-85
2022/07/23 11:25:28;;;;;;;5.97;2.38;;;21.70;93.10;;;;;;5053374;28;20039;-85
2022/07/23 11:27:55;;;;;;;6.60;2.47;;;21.70;92.70;;;;;;5053080;28;20033;-85
2022/07/23 11:30:26;;;;;;;5.53;3.00;;;21.70;92.00;;;;;;5054108;28;20385;-85
2022/07/23 11:33:13;;;;;;;6.10;2.40;;;21.70;91.80;;;;;;5054394;28;20036;-84
2022/07/23 11:35:41;;;;;;;5.05;2.22;;;21.80;91.30;;;;;;5054002;28;20051;-85
2022/07/23 11:38:11;;;;;;;5.03;2.10;;;21.90;91.30;;;;;;5054212;28;20037;-85
2022/07/23 11:40:45;;;;;;;6.43;2.65;;;22.00;91.60;;;;;;5053762;28;20049;-85
2022/07/23 11:43:13;;;;;;;4.80;2.05;;;22.00;91.10;;;;;;5054035;28;20547;-84
2022/07/23 11:45:44;;;;;;;7.90;2.60;;;22.00;91.10;;;;;;5053990;28;20032;-85
2022/07/23 11:48:29;;;;;;;4.35;2.10;;;22.00;91.30;;;;;;5053965;28;20036;-85
2022/07/23 11:50:56;;;;;;;7.78;3.10;;;22.00;91.20;;;;;;5052814;28;20029;-85
2022/07/23 11:53:27;;;;;;;6.70;3.00;;;22.00;91.20;;;;;;5053744;28;20025;-86
2022/07/23 11:55:54;;;;;;;4.25;2.30;;;22.00;91.00;;;;;;5052279;28;20489;-85
2022/07/23 11:58:21;;;;;;;5.22;2.83;;;22.00;90.90;;;;;;5053648;28;20428;-86
2022/07/23 12:00:47;;;;;;;5.72;3.95;;;22.10;90.90;;;;;;5053418;28;20025;-85
2022/07/23 12:03:13;;;;;;;5.30;2.95;;;22.10;90.30;;;;;;5053356;28;20029;-85
2022/07/23 12:05:39;;;;;;;7.50;3.38;;;22.10;90.70;;;;;;5053268;28;20082;-85
2022/07/23 12:08:07;;;;;;;8.32;2.60;;;22.20;90.00;;;;;;5053594;28;20032;-85
2022/07/23 12:10:59;;;;;;;6.73;3.13;;;22.20;89.60;;;;;;5052059;28;20029;-86
2022/07/23 12:13:25;;;;;;;4.88;3.00;;;22.20;90.40;;;;;;5076422;22;20286;-83
2022/07/23 12:15:53;;;;;;;7.00;3.10;;;22.30;90.30;;;;;;5053303;28;20045;-85
2022/07/23 12:18:24;;;;;;;5.32;2.88;;;22.30;90.00;;;;;;5051941;28;20064;-86
2022/07/23 12:21:05;;;;;;;4.32;2.63;;;22.30;90.30;;;;;;5053399;28;20033;-85
2022/07/23 12:23:30;;;;;;;5.03;2.10;;;22.30;90.50;;;;;;5053100;28;20482;-85
2022/07/23 12:26:03;;;;;;;4.78;2.58;;;22.40;90.40;;;;;;5053358;28;20025;-85
2022/07/23 12:28:32;;;;;;;4.13;2.15;;;22.40;90.10;;;;;;5051953;28;20033;-85
2022/07/23 12:30:58;;;;;;;;;;;22.50;88.40;;;;;;5053455;28;20374;-85
2022/07/23 12:33:25;;;;;;;4.85;2.50;;;22.60;88.00;;;;;;5053069;28;19909;-85
2022/07/23 12:35:56;;;;;;;3.40;2.20;;;22.80;86.60;;;;;;5051247;28;20033;-85
2022/07/23 12:38:24;;;;;;;3.75;1.83;;;22.90;84.60;;;;;;5051715;28;20529;-85
2022/07/23 12:40:53;;;;;;;3.65;1.92;;;23.00;84.00;;;;;;5053077;28;20039;-85
2022/07/23 12:43:38;;;;;;;4.72;2.30;;;23.00;84.50;;;;;;5051617;28;20535;-84
2022/07/23 12:46:21;;;;;;;4.78;2.17;;;23.10;84.70;;;;;;5052590;28;20473;-85
2022/07/23 12:48:49;;;;;;;4.93;2.45;;;23.20;84.30;;;;;;5052365;28;20551;-85
2022/07/23 12:51:27;;;;;;;5.22;2.40;;;23.20;84.30;;;;;;5051280;28;20420;-85
2022/07/23 12:53:54;;;;;;;6.45;3.00;;;23.30;83.50;;;;;;5051373;28;20466;-85
2022/07/23 12:56:29;;;;;;;4.88;2.60;;;23.40;83.20;;;;;;5052350;28;20035;-85
2022/07/23 12:59:16;;;;;;;6.65;4.03;;;23.30;83.80;;;;;;5052305;28;20071;-85
2022/07/23 13:01:48;;;;;;;5.13;2.53;;;23.20;83.90;;;;;;5052875;28;20021;-85
2022/07/23 13:04:20;;;;;;;3.63;2.42;;;23.20;85.20;;;;;;5052554;28;20025;-87
2022/07/23 13:06:49;;;;;;;3.38;2.00;;;23.10;84.20;;;;;;5034449;28;20028;-86
2022/07/23 13:09:21;;;;;;;5.28;3.00;;;23.00;84.30;;;;;;5050895;28;20455;-85